PKO YPJT-YMDN
Flight info
| Callsign | PKO |
|---|---|
| Flight time | 0h 54m |
| Altitude | 7500 |
| Route | YMDN |
| Aircraft | SR22/L-SDGRY/S |
Departure
| Time | 2026-05-06 09:57 |
|---|---|
| Airport | Perth Jandakot Airport (YPJT) |
Arrival
| Time | 2026-05-06 10:51 |
|---|---|
| Airport | Merredin Airport (YMDN) |
| Time | Latitude | Longitude | Altitude | Speed | Heading |
|---|---|---|---|---|---|
| 2026-05-06 09:40 | -32.09546 | 115.87966 | 104 ft | 0 kts | 55° |
| 2026-05-06 09:49 | -32.09550 | 115.87985 | 104 ft | 0 kts | 141° |
| 2026-05-06 09:50 | -32.09576 | 115.87962 | 104 ft | 10 kts | 231° |
| 2026-05-06 09:50 | -32.09603 | 115.87883 | 104 ft | 4 kts | 245° |
| 2026-05-06 09:50 | -32.09661 | 115.87830 | 104 ft | 18 kts | 240° |
| 2026-05-06 09:50 | -32.09735 | 115.87701 | 104 ft | 16 kts | 236° |
| 2026-05-06 09:51 | -32.09742 | 115.87689 | 104 ft | 0 kts | 240° |
| 2026-05-06 09:51 | -32.09748 | 115.87679 | 104 ft | 7 kts | 232° |
| 2026-05-06 09:51 | -32.09777 | 115.87633 | 104 ft | 9 kts | 229° |
| 2026-05-06 09:51 | -32.09831 | 115.87544 | 104 ft | 15 kts | 236° |
| 2026-05-06 09:52 | -32.09897 | 115.87436 | 104 ft | 11 kts | 200° |
| 2026-05-06 09:52 | -32.09923 | 115.87433 | 104 ft | 0 kts | 158° |
| 2026-05-06 09:53 | -32.09930 | 115.87436 | 104 ft | 2 kts | 175° |
| 2026-05-06 09:53 | -32.09943 | 115.87440 | 104 ft | 0 kts | 167° |
| 2026-05-06 09:53 | -32.09986 | 115.87485 | 104 ft | 10 kts | 110° |
| 2026-05-06 09:53 | -32.10012 | 115.87559 | 104 ft | 4 kts | 116° |
| 2026-05-06 09:54 | -32.10037 | 115.87624 | 104 ft | 8 kts | 110° |
| 2026-05-06 09:54 | -32.10042 | 115.87636 | 104 ft | 0 kts | 114° |
| 2026-05-06 09:54 | -32.10047 | 115.87648 | 104 ft | 3 kts | 108° |
| 2026-05-06 09:54 | -32.10047 | 115.87650 | 104 ft | 0 kts | 112° |
| 2026-05-06 09:55 | -32.10050 | 115.87658 | 104 ft | 0 kts | 108° |
| 2026-05-06 09:55 | -32.10062 | 115.87685 | 104 ft | 13 kts | 129° |
| 2026-05-06 09:55 | -32.10073 | 115.87719 | 104 ft | 0 kts | 58° |
| 2026-05-06 09:56 | -32.10025 | 115.87795 | 104 ft | 43 kts | 53° |
| 2026-05-06 09:56 | -32.09725 | 115.88296 | 173 ft | 95 kts | 55° |
| 2026-05-06 09:56 | -32.09322 | 115.88988 | 426 ft | 111 kts | 58° |
| 2026-05-06 09:57 | -32.08943 | 115.89787 | 811 ft | 111 kts | 81° |
| 2026-05-06 09:57 | -32.09253 | 115.90578 | 1101 ft | 124 kts | 139° |
| 2026-05-06 09:57 | -32.10028 | 115.91170 | 1261 ft | 135 kts | 141° |
| 2026-05-06 09:57 | -32.10803 | 115.91743 | 1574 ft | 133 kts | 140° |
| 2026-05-06 09:58 | -32.11505 | 115.92531 | 1566 ft | 145 kts | 117° |
| 2026-05-06 09:58 | -32.11944 | 115.93649 | 1512 ft | 155 kts | 109° |
| 2026-05-06 09:58 | -32.12378 | 115.94831 | 1544 ft | 157 kts | 111° |
| 2026-05-06 09:58 | -32.12815 | 115.96014 | 1613 ft | 156 kts | 109° |
| 2026-05-06 09:59 | -32.13234 | 115.97188 | 1705 ft | 154 kts | 112° |
| 2026-05-06 09:59 | -32.13666 | 115.98304 | 1875 ft | 149 kts | 108° |
| 2026-05-06 09:59 | -32.14028 | 115.99369 | 2318 ft | 132 kts | 108° |
| 2026-05-06 09:59 | -32.14390 | 116.00385 | 2493 ft | 139 kts | 109° |
| 2026-05-06 10:00 | -32.14749 | 116.01476 | 2517 ft | 145 kts | 97° |
| 2026-05-06 10:00 | -32.14866 | 116.02683 | 2519 ft | 151 kts | 94° |
| 2026-05-06 10:00 | -32.14989 | 116.04357 | 2512 ft | 155 kts | 93° |
| 2026-05-06 10:00 | -32.15045 | 116.05208 | 2509 ft | 156 kts | 92° |
| 2026-05-06 10:01 | -32.15126 | 116.06491 | 2514 ft | 157 kts | 92° |
| 2026-05-06 10:01 | -32.15206 | 116.07782 | 2530 ft | 158 kts | 92° |
| 2026-05-06 10:01 | -32.15286 | 116.09083 | 2511 ft | 159 kts | 92° |
| 2026-05-06 10:01 | -32.15365 | 116.10380 | 2514 ft | 158 kts | 92° |
| 2026-05-06 10:02 | -32.15444 | 116.11676 | 2520 ft | 159 kts | 92° |
| 2026-05-06 10:02 | -32.15380 | 116.12968 | 2519 ft | 158 kts | 81° |
| 2026-05-06 10:02 | -32.15190 | 116.14256 | 2515 ft | 158 kts | 79° |
| 2026-05-06 10:02 | -32.14988 | 116.15535 | 2514 ft | 158 kts | 79° |
| 2026-05-06 10:03 | -32.14780 | 116.16817 | 2515 ft | 158 kts | 79° |
| 2026-05-06 10:03 | -32.14571 | 116.18093 | 2516 ft | 158 kts | 79° |
| 2026-05-06 10:03 | -32.14361 | 116.19368 | 2514 ft | 158 kts | 79° |
| 2026-05-06 10:03 | -32.14152 | 116.20639 | 2515 ft | 158 kts | 79° |
| 2026-05-06 10:04 | -32.13941 | 116.21915 | 2512 ft | 158 kts | 79° |
| 2026-05-06 10:04 | -32.13731 | 116.23188 | 2521 ft | 158 kts | 79° |
| 2026-05-06 10:04 | -32.13520 | 116.24461 | 2516 ft | 158 kts | 79° |
| 2026-05-06 10:04 | -32.13310 | 116.25735 | 2510 ft | 158 kts | 79° |
| 2026-05-06 10:05 | -32.13100 | 116.27003 | 2511 ft | 157 kts | 79° |
| 2026-05-06 10:05 | -32.12890 | 116.28273 | 2515 ft | 157 kts | 79° |
| 2026-05-06 10:05 | -32.12663 | 116.29535 | 2510 ft | 157 kts | 73° |
| 2026-05-06 10:05 | -32.12314 | 116.30763 | 2546 ft | 157 kts | 72° |
| 2026-05-06 10:06 | -32.11950 | 116.31997 | 2523 ft | 160 kts | 72° |
| 2026-05-06 10:06 | -32.11579 | 116.33237 | 2509 ft | 159 kts | 71° |
| 2026-05-06 10:06 | -32.11208 | 116.34468 | 2520 ft | 158 kts | 71° |
| 2026-05-06 10:06 | -32.10837 | 116.35699 | 2523 ft | 159 kts | 71° |
| 2026-05-06 10:07 | -32.10464 | 116.36932 | 2515 ft | 159 kts | 71° |
| 2026-05-06 10:07 | -32.10093 | 116.38159 | 2526 ft | 158 kts | 71° |
| 2026-05-06 10:07 | -32.09722 | 116.39386 | 2518 ft | 157 kts | 71° |
| 2026-05-06 10:07 | -32.09356 | 116.40597 | 2519 ft | 157 kts | 71° |
| 2026-05-06 10:08 | -32.08987 | 116.41818 | 2520 ft | 156 kts | 71° |
| 2026-05-06 10:08 | -32.08621 | 116.43027 | 2515 ft | 156 kts | 71° |
| 2026-05-06 10:08 | -32.08254 | 116.44235 | 2515 ft | 156 kts | 71° |
| 2026-05-06 10:08 | -32.07886 | 116.45446 | 2512 ft | 156 kts | 71° |
| 2026-05-06 10:09 | -32.07518 | 116.46657 | 2512 ft | 156 kts | 71° |
| 2026-05-06 10:09 | -32.07150 | 116.47863 | 2513 ft | 156 kts | 72° |
| 2026-05-06 10:09 | -32.06781 | 116.49074 | 2514 ft | 156 kts | 72° |
| 2026-05-06 10:09 | -32.06412 | 116.50288 | 2515 ft | 157 kts | 72° |
| 2026-05-06 10:10 | -32.06044 | 116.51496 | 2513 ft | 156 kts | 71° |
| 2026-05-06 10:10 | -32.05674 | 116.52712 | 2514 ft | 156 kts | 72° |
| 2026-05-06 10:10 | -32.05308 | 116.53916 | 2514 ft | 155 kts | 71° |
| 2026-05-06 10:10 | -32.04941 | 116.55125 | 2519 ft | 155 kts | 72° |
| 2026-05-06 10:11 | -32.04576 | 116.56325 | 2515 ft | 155 kts | 71° |
| 2026-05-06 10:11 | -32.04224 | 116.57480 | 2873 ft | 138 kts | 71° |
| 2026-05-06 10:11 | -32.03919 | 116.58477 | 3303 ft | 125 kts | 71° |
| 2026-05-06 10:11 | -32.03619 | 116.59460 | 3502 ft | 132 kts | 71° |
| 2026-05-06 10:12 | -32.03293 | 116.60531 | 3529 ft | 143 kts | 71° |
| 2026-05-06 10:12 | -32.02946 | 116.61672 | 3505 ft | 150 kts | 71° |
| 2026-05-06 10:12 | -32.02590 | 116.62844 | 3499 ft | 153 kts | 71° |
| 2026-05-06 10:12 | -32.02227 | 116.64037 | 3496 ft | 154 kts | 71° |
| 2026-05-06 10:13 | -32.01862 | 116.65233 | 3497 ft | 155 kts | 71° |
| 2026-05-06 10:13 | -32.01496 | 116.66435 | 3500 ft | 155 kts | 70° |
| 2026-05-06 10:13 | -32.01156 | 116.67549 | 3497 ft | 156 kts | 70° |
| 2026-05-06 10:13 | -32.00787 | 116.68757 | 3505 ft | 157 kts | 71° |
| 2026-05-06 10:14 | -32.00450 | 116.69859 | 4065 ft | 131 kts | 70° |
| 2026-05-06 10:14 | -32.00155 | 116.70820 | 4456 ft | 122 kts | 70° |
| 2026-05-06 10:14 | -31.99867 | 116.71759 | 4754 ft | 123 kts | 70° |
| 2026-05-06 10:14 | -31.99574 | 116.72714 | 5025 ft | 125 kts | 70° |
| 2026-05-06 10:15 | -31.99278 | 116.73681 | 5298 ft | 126 kts | 70° |
| 2026-05-06 10:15 | -31.98976 | 116.74669 | 5479 ft | 133 kts | 70° |
| 2026-05-06 10:15 | -31.98643 | 116.75757 | 5504 ft | 147 kts | 71° |
| 2026-05-06 10:15 | -31.98286 | 116.76927 | 5497 ft | 154 kts | 71° |
| 2026-05-06 10:16 | -31.97914 | 116.78147 | 5493 ft | 158 kts | 71° |
| 2026-05-06 10:16 | -31.97410 | 116.79793 | 5488 ft | 161 kts | 71° |
| 2026-05-06 10:16 | -31.97154 | 116.80630 | 5486 ft | 161 kts | 71° |
| 2026-05-06 10:16 | -31.96773 | 116.81875 | 5488 ft | 162 kts | 70° |
| 2026-05-06 10:17 | -31.96385 | 116.83139 | 5486 ft | 162 kts | 70° |
| 2026-05-06 10:17 | -31.96002 | 116.84389 | 5487 ft | 162 kts | 70° |
| 2026-05-06 10:17 | -31.95617 | 116.85643 | 5485 ft | 162 kts | 70° |
| 2026-05-06 10:17 | -31.95233 | 116.86895 | 5483 ft | 162 kts | 70° |
| 2026-05-06 10:18 | -31.94844 | 116.88159 | 5481 ft | 162 kts | 70° |
| 2026-05-06 10:18 | -31.94459 | 116.89412 | 5483 ft | 163 kts | 70° |
| 2026-05-06 10:18 | -31.94071 | 116.90676 | 5485 ft | 163 kts | 70° |
| 2026-05-06 10:18 | -31.93685 | 116.91928 | 5490 ft | 162 kts | 71° |
| 2026-05-06 10:19 | -31.93299 | 116.93185 | 5495 ft | 162 kts | 71° |
| 2026-05-06 10:19 | -31.92913 | 116.94437 | 5500 ft | 162 kts | 71° |
| 2026-05-06 10:19 | -31.92528 | 116.95694 | 5503 ft | 162 kts | 71° |
| 2026-05-06 10:19 | -31.92163 | 116.96953 | 5502 ft | 162 kts | 71° |
| 2026-05-06 10:20 | -31.91798 | 116.98215 | 5502 ft | 162 kts | 71° |
| 2026-05-06 10:20 | -31.91435 | 116.99471 | 5499 ft | 162 kts | 71° |
| 2026-05-06 10:20 | -31.91072 | 117.00727 | 5499 ft | 162 kts | 71° |
| 2026-05-06 10:20 | -31.90709 | 117.01985 | 5499 ft | 162 kts | 71° |
| 2026-05-06 10:21 | -31.90343 | 117.03248 | 5497 ft | 162 kts | 71° |
| 2026-05-06 10:21 | -31.89978 | 117.04514 | 5498 ft | 162 kts | 71° |
| 2026-05-06 10:21 | -31.89614 | 117.05770 | 5501 ft | 162 kts | 71° |
| 2026-05-06 10:21 | -31.89244 | 117.07050 | 5502 ft | 162 kts | 72° |
| 2026-05-06 10:22 | -31.88879 | 117.08309 | 5504 ft | 162 kts | 72° |
| 2026-05-06 10:22 | -31.88512 | 117.09579 | 5504 ft | 162 kts | 72° |
| 2026-05-06 10:22 | -31.88147 | 117.10838 | 5500 ft | 162 kts | 72° |
| 2026-05-06 10:22 | -31.87782 | 117.12099 | 5499 ft | 162 kts | 72° |
| 2026-05-06 10:23 | -31.87419 | 117.13351 | 5499 ft | 161 kts | 72° |
| 2026-05-06 10:23 | -31.87052 | 117.14617 | 5499 ft | 161 kts | 72° |
| 2026-05-06 10:23 | -31.86690 | 117.15864 | 5501 ft | 161 kts | 72° |
| 2026-05-06 10:23 | -31.86323 | 117.17127 | 5499 ft | 162 kts | 71° |
| 2026-05-06 10:24 | -31.85959 | 117.18380 | 5498 ft | 162 kts | 71° |
| 2026-05-06 10:24 | -31.85593 | 117.19640 | 5497 ft | 162 kts | 71° |
| 2026-05-06 10:24 | -31.85229 | 117.20894 | 5498 ft | 162 kts | 71° |
| 2026-05-06 10:24 | -31.84858 | 117.22168 | 5496 ft | 162 kts | 72° |
| 2026-05-06 10:25 | -31.84494 | 117.23420 | 5497 ft | 161 kts | 72° |
| 2026-05-06 10:25 | -31.84129 | 117.24674 | 5498 ft | 161 kts | 72° |
| 2026-05-06 10:25 | -31.83765 | 117.25925 | 5500 ft | 161 kts | 72° |
| 2026-05-06 10:25 | -31.83401 | 117.27175 | 5501 ft | 161 kts | 72° |
| 2026-05-06 10:26 | -31.83038 | 117.28419 | 5503 ft | 161 kts | 72° |
| 2026-05-06 10:26 | -31.82674 | 117.29671 | 5503 ft | 161 kts | 72° |
| 2026-05-06 10:26 | -31.82309 | 117.30920 | 5504 ft | 161 kts | 72° |
| 2026-05-06 10:26 | -31.81944 | 117.32173 | 5505 ft | 161 kts | 72° |
| 2026-05-06 10:27 | -31.81581 | 117.33416 | 5506 ft | 161 kts | 71° |
| 2026-05-06 10:27 | -31.81217 | 117.34664 | 5508 ft | 161 kts | 71° |
| 2026-05-06 10:27 | -31.80852 | 117.35913 | 5510 ft | 161 kts | 71° |
| 2026-05-06 10:27 | -31.80487 | 117.37162 | 5509 ft | 161 kts | 71° |
| 2026-05-06 10:28 | -31.80123 | 117.38407 | 5510 ft | 161 kts | 71° |
| 2026-05-06 10:28 | -31.79758 | 117.39654 | 5513 ft | 160 kts | 71° |
| 2026-05-06 10:28 | -31.79393 | 117.40903 | 5513 ft | 161 kts | 71° |
| 2026-05-06 10:28 | -31.79028 | 117.42148 | 5513 ft | 161 kts | 72° |
| 2026-05-06 10:29 | -31.78663 | 117.43396 | 5513 ft | 161 kts | 72° |
| 2026-05-06 10:29 | -31.78298 | 117.44641 | 5514 ft | 161 kts | 72° |
| 2026-05-06 10:29 | -31.77933 | 117.45886 | 5516 ft | 161 kts | 72° |
| 2026-05-06 10:29 | -31.77569 | 117.47129 | 5512 ft | 161 kts | 72° |
| 2026-05-06 10:30 | -31.77200 | 117.48386 | 5513 ft | 161 kts | 72° |
| 2026-05-06 10:30 | -31.76835 | 117.49631 | 5517 ft | 161 kts | 71° |
| 2026-05-06 10:30 | -31.76468 | 117.50881 | 5516 ft | 161 kts | 71° |
| 2026-05-06 10:30 | -31.76103 | 117.52125 | 5515 ft | 161 kts | 71° |
| 2026-05-06 10:31 | -31.75736 | 117.53373 | 5513 ft | 161 kts | 71° |
| 2026-05-06 10:31 | -31.75371 | 117.54617 | 5513 ft | 161 kts | 71° |
| 2026-05-06 10:31 | -31.75004 | 117.55864 | 5515 ft | 161 kts | 72° |
| 2026-05-06 10:31 | -31.74639 | 117.57105 | 5514 ft | 161 kts | 72° |
| 2026-05-06 10:32 | -31.74270 | 117.58357 | 5513 ft | 161 kts | 72° |
| 2026-05-06 10:32 | -31.73903 | 117.59604 | 5512 ft | 161 kts | 72° |
| 2026-05-06 10:32 | -31.73537 | 117.60848 | 5506 ft | 161 kts | 72° |
| 2026-05-06 10:32 | -31.73168 | 117.62099 | 5504 ft | 161 kts | 72° |
| 2026-05-06 10:33 | -31.72801 | 117.63345 | 5506 ft | 161 kts | 72° |
| 2026-05-06 10:33 | -31.72435 | 117.64588 | 5505 ft | 161 kts | 72° |
| 2026-05-06 10:33 | -31.72067 | 117.65835 | 5507 ft | 161 kts | 71° |
| 2026-05-06 10:33 | -31.71697 | 117.67088 | 5510 ft | 161 kts | 71° |
| 2026-05-06 10:34 | -31.71361 | 117.68227 | 5512 ft | 161 kts | 71° |
| 2026-05-06 10:34 | -31.70987 | 117.69492 | 5513 ft | 161 kts | 71° |
| 2026-05-06 10:34 | -31.70618 | 117.70742 | 5511 ft | 161 kts | 71° |
| 2026-05-06 10:34 | -31.70247 | 117.71996 | 5513 ft | 161 kts | 71° |
| 2026-05-06 10:35 | -31.69879 | 117.73242 | 5515 ft | 161 kts | 71° |
| 2026-05-06 10:35 | -31.69508 | 117.74494 | 5513 ft | 161 kts | 71° |
| 2026-05-06 10:35 | -31.69140 | 117.75739 | 5508 ft | 161 kts | 71° |
| 2026-05-06 10:35 | -31.68769 | 117.76991 | 5506 ft | 161 kts | 71° |
| 2026-05-06 10:36 | -31.68400 | 117.78242 | 5503 ft | 162 kts | 71° |
| 2026-05-06 10:36 | -31.68031 | 117.79496 | 5499 ft | 162 kts | 71° |
| 2026-05-06 10:36 | -31.67661 | 117.80753 | 5498 ft | 162 kts | 71° |
| 2026-05-06 10:36 | -31.67292 | 117.82002 | 5501 ft | 161 kts | 71° |
| 2026-05-06 10:37 | -31.66924 | 117.83245 | 5502 ft | 161 kts | 71° |
| 2026-05-06 10:37 | -31.66554 | 117.84491 | 5505 ft | 161 kts | 71° |
| 2026-05-06 10:37 | -31.66184 | 117.85738 | 5508 ft | 161 kts | 71° |
| 2026-05-06 10:37 | -31.65815 | 117.86980 | 5506 ft | 161 kts | 71° |
| 2026-05-06 10:38 | -31.65444 | 117.88228 | 5507 ft | 161 kts | 71° |
| 2026-05-06 10:38 | -31.65076 | 117.89467 | 5506 ft | 160 kts | 71° |
| 2026-05-06 10:38 | -31.64707 | 117.90707 | 5506 ft | 160 kts | 71° |
| 2026-05-06 10:38 | -31.64339 | 117.91944 | 5506 ft | 160 kts | 71° |
| 2026-05-06 10:39 | -31.63970 | 117.93185 | 5508 ft | 160 kts | 71° |
| 2026-05-06 10:39 | -31.63599 | 117.94428 | 5510 ft | 161 kts | 71° |
| 2026-05-06 10:39 | -31.63226 | 117.95681 | 5509 ft | 161 kts | 71° |
| 2026-05-06 10:39 | -31.62856 | 117.96924 | 5511 ft | 161 kts | 71° |
| 2026-05-06 10:40 | -31.62483 | 117.98175 | 5512 ft | 161 kts | 71° |
| 2026-05-06 10:40 | -31.62113 | 117.99417 | 5514 ft | 161 kts | 71° |
| 2026-05-06 10:40 | -31.61741 | 118.00664 | 5514 ft | 161 kts | 71° |
| 2026-05-06 10:40 | -31.61370 | 118.01905 | 5510 ft | 161 kts | 71° |
| 2026-05-06 10:41 | -31.60996 | 118.03158 | 5509 ft | 161 kts | 71° |
| 2026-05-06 10:41 | -31.60626 | 118.04395 | 5509 ft | 160 kts | 71° |
| 2026-05-06 10:41 | -31.60254 | 118.05642 | 5508 ft | 160 kts | 71° |
| 2026-05-06 10:41 | -31.59885 | 118.06877 | 5510 ft | 160 kts | 71° |
| 2026-05-06 10:42 | -31.59513 | 118.08120 | 5510 ft | 161 kts | 71° |
| 2026-05-06 10:42 | -31.59142 | 118.09360 | 5508 ft | 161 kts | 71° |
| 2026-05-06 10:42 | -31.58769 | 118.10608 | 5509 ft | 161 kts | 71° |
| 2026-05-06 10:42 | -31.58402 | 118.11846 | 5511 ft | 161 kts | 71° |
| 2026-05-06 10:43 | -31.58031 | 118.13093 | 5511 ft | 161 kts | 71° |
| 2026-05-06 10:43 | -31.57660 | 118.14337 | 5509 ft | 161 kts | 71° |
| 2026-05-06 10:43 | -31.57289 | 118.15581 | 5508 ft | 161 kts | 71° |
| 2026-05-06 10:44 | -31.56560 | 118.18061 | 5509 ft | 160 kts | 71° |
| 2026-05-06 10:44 | -31.56197 | 118.19306 | 5513 ft | 160 kts | 71° |
| 2026-05-06 10:44 | -31.55834 | 118.20552 | 5508 ft | 160 kts | 71° |
| 2026-05-06 10:44 | -31.55473 | 118.21794 | 5506 ft | 160 kts | 71° |
| 2026-05-06 10:45 | -31.55110 | 118.23038 | 5507 ft | 161 kts | 71° |
| 2026-05-06 10:45 | -31.54744 | 118.24288 | 5511 ft | 161 kts | 71° |
| 2026-05-06 10:45 | -31.54378 | 118.25532 | 5514 ft | 161 kts | 71° |
| 2026-05-06 10:45 | -31.54025 | 118.26730 | 5517 ft | 161 kts | 71° |
| 2026-05-06 10:46 | -31.53655 | 118.27969 | 5518 ft | 161 kts | 71° |
| 2026-05-06 10:46 | -31.53536 | 118.29256 | 5292 ft | 166 kts | 107° |
| 2026-05-06 10:46 | -31.54311 | 118.30224 | 5043 ft | 173 kts | 150° |
| 2026-05-06 10:46 | -31.55513 | 118.30560 | 4729 ft | 178 kts | 163° |
| 2026-05-06 10:47 | -31.56721 | 118.30873 | 4441 ft | 175 kts | 156° |
| 2026-05-06 10:47 | -31.57550 | 118.31712 | 4136 ft | 160 kts | 106° |
| 2026-05-06 10:47 | -31.57203 | 118.32812 | 3748 ft | 156 kts | 37° |
| 2026-05-06 10:47 | -31.56162 | 118.33119 | 3277 ft | 162 kts | 13° |
| 2026-05-06 10:48 | -31.55047 | 118.33178 | 2909 ft | 156 kts | 9° |
| 2026-05-06 10:48 | -31.53996 | 118.33265 | 2599 ft | 145 kts | 14° |
| 2026-05-06 10:48 | -31.53021 | 118.33351 | 2368 ft | 135 kts | 11° |
| 2026-05-06 10:48 | -31.52151 | 118.33374 | 2310 ft | 114 kts | 10° |
| 2026-05-06 10:49 | -31.51440 | 118.33166 | 2278 ft | 112 kts | 326° |
| 2026-05-06 10:49 | -31.51175 | 118.32362 | 2269 ft | 105 kts | 276° |
| 2026-05-06 10:49 | -31.51036 | 118.31512 | 2271 ft | 108 kts | 279° |
| 2026-05-06 10:49 | -31.50900 | 118.30668 | 2350 ft | 107 kts | 277° |
| 2026-05-06 10:50 | -31.50850 | 118.29771 | 2298 ft | 112 kts | 244° |
| 2026-05-06 10:50 | -31.51346 | 118.29377 | 2185 ft | 75 kts | 155° |
| 2026-05-06 10:50 | -31.51763 | 118.29839 | 1922 ft | 62 kts | 121° |
| 2026-05-06 10:50 | -31.51922 | 118.30122 | 1784 ft | 63 kts | 111° |
| 2026-05-06 10:51 | -31.52047 | 118.30600 | 1605 ft | 64 kts | 97° |
| 2026-05-06 10:51 | -31.52101 | 118.31091 | 1450 ft | 58 kts | 97° |
| 2026-05-06 10:51 | -31.52144 | 118.31557 | 1341 ft | 57 kts | 96° |
| 2026-05-06 10:51 | -31.52189 | 118.32067 | 1275 ft | 23 kts | 97° |
| 2026-05-06 10:52 | -31.52199 | 118.32142 | 1276 ft | 4 kts | 147° |
| 2026-05-06 10:52 | -31.52242 | 118.32135 | 1276 ft | 7 kts | 191° |
| 2026-05-06 10:52 | -31.52259 | 118.32071 | 1273 ft | 13 kts | 277° |
| 2026-05-06 10:52 | -31.52254 | 118.31962 | 1271 ft | 10 kts | 266° |
| 2026-05-06 10:53 | -31.52299 | 118.31931 | 1273 ft | 10 kts | 189° |
| 2026-05-06 10:53 | -31.52311 | 118.31928 | 1274 ft | 0 kts | 171° |
| 2026-05-06 10:58 | -31.52310 | 118.31928 | 1274 ft | 0 kts | 169° |